createdAt,value
2018-05-14T00:01:03.514Z,12.10
2018-05-14T00:03:32.632Z,12.10
2018-05-14T00:06:01.098Z,12.10
2018-05-14T00:08:30.234Z,12.10
2018-05-14T00:10:58.584Z,12.10
2018-05-14T00:13:26.934Z,12.10
2018-05-14T00:15:55.483Z,12.20
2018-05-14T00:18:23.809Z,12.20
2018-05-14T00:20:52.925Z,12.20
2018-05-14T00:23:21.270Z,12.20
2018-05-14T00:25:49.597Z,12.20
2018-05-14T00:28:17.973Z,12.20
2018-05-14T00:30:46.343Z,12.20
2018-05-14T00:33:14.732Z,12.20
2018-05-14T00:35:43.108Z,12.20
2018-05-14T00:38:11.448Z,12.10
2018-05-14T00:40:39.839Z,12.10
2018-05-14T00:43:08.929Z,12.10
2018-05-14T00:45:38.129Z,12.00
2018-05-14T00:48:07.253Z,12.00
2018-05-14T00:50:35.600Z,12.00
2018-05-14T00:53:04.707Z,11.90
2018-05-14T00:55:33.866Z,11.90
2018-05-14T00:58:02.242Z,11.90
2018-05-14T01:00:30.606Z,11.80
2018-05-14T01:02:58.950Z,11.70
2018-05-14T01:05:28.078Z,11.60
2018-05-14T01:07:56.451Z,11.50
2018-05-14T01:10:24.817Z,11.50
2018-05-14T01:12:53.183Z,11.40
2018-05-14T01:15:22.291Z,11.30
2018-05-14T01:17:50.654Z,11.30
2018-05-14T01:20:19.786Z,11.20
2018-05-14T01:22:48.202Z,11.20
2018-05-14T01:25:16.602Z,11.20
2018-05-14T01:27:44.952Z,11.20
2018-05-14T01:30:13.309Z,11.10
2018-05-14T01:32:41.646Z,11.20
2018-05-14T01:35:10.827Z,11.30
2018-05-14T01:37:40.015Z,11.40
2018-05-14T01:40:08.630Z,11.30
2018-05-14T01:42:37.898Z,11.30
2018-05-14T01:45:06.150Z,11.30
2018-05-14T01:47:34.565Z,11.30
2018-05-14T01:50:03.706Z,11.30
2018-05-14T01:52:32.047Z,11.30
2018-05-14T01:55:00.434Z,11.40
2018-05-14T01:57:28.827Z,11.40
2018-05-14T01:59:57.960Z,11.20
2018-05-14T02:02:26.320Z,11.20
2018-05-14T02:04:54.721Z,11.20
2018-05-14T02:07:23.090Z,11.20
2018-05-14T02:09:51.456Z,11.20
2018-05-14T02:12:19.834Z,11.20
2018-05-14T02:14:48.930Z,11.20
2018-05-14T02:17:17.527Z,11.20
2018-05-14T02:19:45.896Z,11.20
2018-05-14T02:22:15.052Z,11.10
2018-05-14T02:24:43.419Z,11.10
2018-05-14T02:27:11.810Z,11.10
2018-05-14T02:29:40.894Z,11.10
2018-05-14T02:32:09.269Z,11.00
2018-05-14T02:34:37.674Z,11.00
2018-05-14T02:37:06.107Z,11.00
2018-05-14T02:39:34.452Z,11.00
2018-05-14T02:42:02.785Z,10.90
2018-05-14T02:44:31.118Z,10.90
2018-05-14T02:46:59.504Z,10.80
2018-05-14T02:49:27.826Z,10.60
2018-05-14T02:51:56.191Z,10.50
2018-05-14T02:54:24.596Z,10.50
2018-05-14T02:56:52.940Z,10.50
2018-05-14T02:59:21.261Z,10.50
2018-05-14T03:01:49.694Z,10.30
2018-05-14T03:04:18.014Z,10.30
2018-05-14T03:06:47.112Z,10.20
2018-05-14T03:09:15.440Z,10.20
2018-05-14T03:11:43.832Z,10.10
2018-05-14T03:14:12.173Z,10.10
2018-05-14T03:16:41.255Z,10.00
2018-05-14T03:19:09.578Z,10.00
2018-05-14T03:21:37.915Z,10.00
2018-05-14T03:24:06.321Z,10.00
2018-05-14T03:26:34.743Z,9.90
2018-05-14T03:29:03.049Z,9.80
2018-05-14T03:31:31.394Z,9.80
2018-05-14T03:33:59.697Z,9.80
2018-05-14T03:36:28.193Z,9.80
2018-05-14T03:38:56.532Z,9.80
2018-05-14T03:41:24.949Z,9.80
2018-05-14T03:43:53.365Z,9.80
2018-05-14T03:46:21.693Z,9.80
2018-05-14T03:48:50.019Z,9.90
2018-05-14T03:51:19.110Z,9.90
2018-05-14T03:53:47.505Z,9.90
2018-05-14T03:56:16.596Z,9.90
2018-05-14T03:58:56.678Z,9.90
2018-05-14T04:01:36.846Z,9.90
2018-05-14T04:04:16.846Z,9.90
2018-05-14T04:06:46.050Z,9.90
2018-05-14T04:09:14.481Z,9.90
2018-05-14T04:11:42.788Z,9.90
2018-05-14T04:14:11.871Z,9.90
2018-05-14T04:16:40.291Z,9.90
2018-05-14T04:19:08.627Z,10.00
2018-05-14T04:21:37.016Z,10.00
2018-05-14T04:24:05.317Z,9.90
2018-05-14T04:26:33.748Z,10.00
2018-05-14T04:29:02.181Z,9.90
2018-05-14T04:31:31.271Z,9.80
2018-05-14T04:34:00.415Z,9.70
2018-05-14T04:36:28.782Z,9.70
2018-05-14T04:38:57.095Z,9.70
2018-05-14T04:41:26.197Z,9.80
2018-05-14T04:43:55.386Z,9.90
2018-05-14T04:46:23.761Z,9.80
2018-05-14T04:48:52.112Z,9.80
2018-05-14T04:51:21.265Z,9.90
2018-05-14T04:53:50.403Z,10.00
2018-05-14T04:56:18.756Z,10.00
2018-05-14T04:58:47.137Z,10.10
2018-05-14T05:01:15.579Z,10.20
2018-05-14T05:03:43.929Z,10.20
2018-05-14T05:06:12.287Z,10.40
2018-05-14T05:08:40.642Z,10.50
2018-05-14T05:11:09.825Z,10.70
2018-05-14T05:13:39.038Z,10.80
2018-05-14T05:16:08.189Z,10.90
2018-05-14T05:18:36.573Z,10.90
2018-05-14T05:21:04.978Z,11.00
2018-05-14T05:23:33.399Z,11.00
2018-05-14T05:26:01.728Z,11.00
2018-05-14T05:28:30.137Z,11.00
2018-05-14T05:30:58.520Z,11.10
2018-05-14T05:33:27.001Z,11.20
2018-05-14T05:35:56.245Z,11.40
2018-05-14T05:38:24.635Z,11.40
2018-05-14T05:40:53.813Z,11.50
2018-05-14T05:43:22.172Z,11.50
2018-05-14T05:45:50.525Z,11.50
2018-05-14T05:48:19.635Z,11.60
2018-05-14T05:50:48.056Z,11.60
2018-05-14T05:53:16.441Z,11.60
2018-05-14T05:55:44.834Z,11.70
2018-05-14T05:58:13.205Z,11.80
2018-05-14T06:00:41.584Z,11.80
2018-05-14T06:03:10.361Z,11.90
2018-05-14T06:05:38.742Z,11.90
2018-05-14T06:08:07.105Z,12.00
2018-05-14T06:10:35.456Z,12.10
2018-05-14T06:13:04.591Z,12.10
2018-05-14T06:15:33.103Z,12.10
2018-05-14T06:18:01.534Z,12.20
2018-05-14T06:20:29.895Z,12.30
2018-05-14T06:23:03.679Z,12.40
2018-05-14T06:25:32.600Z,12.60
2018-05-14T06:28:00.933Z,12.80
2018-05-14T06:30:29.295Z,13.00
2018-05-14T06:33:01.465Z,13.20
2018-05-14T06:35:36.265Z,13.50
2018-05-14T06:38:10.470Z,13.60
2018-05-14T06:40:38.837Z,13.60
2018-05-14T06:43:15.365Z,13.60
2018-05-14T06:45:45.527Z,13.60
2018-05-14T06:48:14.662Z,13.80
2018-05-14T06:50:48.589Z,13.80
2018-05-14T06:53:16.990Z,14.00
2018-05-14T06:55:49.031Z,14.20
2018-05-14T06:58:19.007Z,14.20
2018-05-14T07:00:48.583Z,14.30
2018-05-14T07:03:18.722Z,14.30
2018-05-14T07:05:49.761Z,14.40
2018-05-14T07:08:18.068Z,14.30
2018-05-14T07:10:46.395Z,14.40
2018-05-14T07:13:16.148Z,14.40
2018-05-14T07:15:45.244Z,14.40
2018-05-14T07:18:14.197Z,14.40
2018-05-14T07:20:42.528Z,14.40
2018-05-14T07:23:10.879Z,14.50
2018-05-14T07:25:39.210Z,14.50
2018-05-14T07:28:07.685Z,14.60
2018-05-14T07:30:36.026Z,14.60
2018-05-14T07:33:05.161Z,14.80
2018-05-14T07:35:33.555Z,14.80
2018-05-14T07:38:02.011Z,14.90
2018-05-14T07:40:30.380Z,15.00
2018-05-14T07:42:58.665Z,15.00
2018-05-14T07:45:26.975Z,15.10
2018-05-14T07:47:55.372Z,15.30
2018-05-14T07:50:24.461Z,15.70
2018-05-14T07:52:52.822Z,15.60
2018-05-14T07:55:21.144Z,15.80
2018-05-14T07:57:49.492Z,16.00
2018-05-14T08:00:18.710Z,16.90
2018-05-14T08:02:47.034Z,16.80
2018-05-14T08:05:15.396Z,17.20
2018-05-14T08:07:44.550Z,17.20
2018-05-14T08:10:12.926Z,17.20
2018-05-14T08:12:41.237Z,17.50
2018-05-14T08:15:09.572Z,17.80
2018-05-14T08:17:37.884Z,17.80
2018-05-14T08:20:06.219Z,17.80
2018-05-14T08:22:34.612Z,18.00
2018-05-14T08:25:02.925Z,18.70
2018-05-14T08:27:31.281Z,19.50
2018-05-14T08:29:59.600Z,19.80
2018-05-14T08:32:28.712Z,20.00
2018-05-14T08:34:57.077Z,20.00
2018-05-14T08:37:26.203Z,20.80
2018-05-14T08:39:54.554Z,20.80
2018-05-14T08:42:23.746Z,19.60
2018-05-14T08:44:52.850Z,19.40
2018-05-14T08:47:21.972Z,19.50
2018-05-14T08:49:50.275Z,19.40
2018-05-14T08:52:18.600Z,19.50
2018-05-14T08:54:47.102Z,19.80
2018-05-14T08:57:15.478Z,19.80
2018-05-14T08:59:43.826Z,19.50
2018-05-14T09:02:12.154Z,19.00
2018-05-14T09:04:40.471Z,19.00
2018-05-14T09:07:08.907Z,19.20
2018-05-14T09:09:37.221Z,19.30
2018-05-14T09:12:05.567Z,19.50
2018-05-14T09:14:33.973Z,19.50
2018-05-14T09:17:02.428Z,19.60
2018-05-14T09:19:30.922Z,19.60
2018-05-14T09:21:59.998Z,19.30
2018-05-14T09:24:28.341Z,19.20
2018-05-14T09:26:56.691Z,19.40
2018-05-14T09:29:25.021Z,19.50
2018-05-14T09:31:53.416Z,20.00
2018-05-14T09:34:21.735Z,20.20
2018-05-14T09:36:50.165Z,20.40
2018-05-14T09:39:18.591Z,20.40
2018-05-14T09:41:46.925Z,20.30
2018-05-14T09:44:15.268Z,20.00
2018-05-14T09:46:43.564Z,20.00
2018-05-14T09:49:12.672Z,19.90
2018-05-14T09:51:41.141Z,19.80
2018-05-14T09:54:10.262Z,19.90
2018-05-14T09:56:38.672Z,19.90
2018-05-14T09:59:06.999Z,19.90
2018-05-14T10:01:36.201Z,19.70
2018-05-14T10:04:05.432Z,19.90
2018-05-14T10:06:33.695Z,19.90
2018-05-14T10:09:02.070Z,19.80
2018-05-14T10:11:30.379Z,20.00
2018-05-14T10:13:58.746Z,20.10
2018-05-14T10:16:28.190Z,19.90
2018-05-14T10:18:56.642Z,19.90
2018-05-14T10:21:24.946Z,20.00
2018-05-14T10:23:53.275Z,20.10
2018-05-14T10:26:21.603Z,20.20
2018-05-14T10:28:49.955Z,20.30
2018-05-14T10:31:18.330Z,20.50
2018-05-14T10:33:47.700Z,20.60
2018-05-14T10:36:16.138Z,20.80
2018-05-14T10:38:44.441Z,20.70
2018-05-14T10:41:13.533Z,20.70
2018-05-14T10:43:43.147Z,20.60
2018-05-14T10:46:12.278Z,20.60
2018-05-14T10:48:40.640Z,20.50
2018-05-14T10:51:09.248Z,20.70
2018-05-14T10:53:37.642Z,20.90
2018-05-14T10:56:06.069Z,20.80
2018-05-14T10:58:35.587Z,21.10
2018-05-14T11:01:04.094Z,21.10
2018-05-14T11:03:33.112Z,21.20
2018-05-14T11:06:01.517Z,21.40
2018-05-14T11:08:29.983Z,21.60
2018-05-14T11:10:58.373Z,22.00
2018-05-14T11:13:26.687Z,22.30
2018-05-14T11:15:55.027Z,22.50
2018-05-14T11:18:23.542Z,22.70
2018-05-14T11:20:51.893Z,22.80
2018-05-14T11:23:20.293Z,22.90
2018-05-14T11:25:49.405Z,22.80
2018-05-14T11:28:18.569Z,22.80
2018-05-14T11:30:46.983Z,22.60
2018-05-14T11:33:15.589Z,22.90
2018-05-14T11:35:44.071Z,23.10
2018-05-14T11:38:12.552Z,23.00
2018-05-14T11:40:40.917Z,22.80
2018-05-14T11:43:09.282Z,22.90
2018-05-14T11:45:38.469Z,22.70
2018-05-14T11:48:07.619Z,22.60
2018-05-14T11:50:36.175Z,22.60
2018-05-14T11:53:04.590Z,22.70
2018-05-14T11:55:33.032Z,23.00
2018-05-14T11:58:01.397Z,23.10
2018-05-14T12:00:30.594Z,23.20
2018-05-14T12:02:59.835Z,23.00
2018-05-14T12:05:28.883Z,23.00
2018-05-14T12:07:58.091Z,23.30
2018-05-14T12:10:27.188Z,23.10
2018-05-14T12:12:57.024Z,23.10
2018-05-14T12:15:25.416Z,23.00
2018-05-14T12:17:53.749Z,23.00
2018-05-14T12:20:22.887Z,22.50
2018-05-14T12:22:51.347Z,22.50
2018-05-14T12:25:19.745Z,22.50
2018-05-14T12:27:48.932Z,22.10
2018-05-14T12:30:17.358Z,22.10
2018-05-14T12:32:45.706Z,22.30
2018-05-14T12:35:14.172Z,22.60
2018-05-14T12:37:42.532Z,23.20
2018-05-14T12:40:11.651Z,23.20
2018-05-14T12:42:40.033Z,23.10
2018-05-14T12:45:08.511Z,23.20
2018-05-14T12:47:37.634Z,22.10
2018-05-14T12:50:05.989Z,22.10
2018-05-14T12:52:34.368Z,21.60
2018-05-14T12:55:02.790Z,22.00
2018-05-14T12:57:31.223Z,22.80
2018-05-14T13:00:00.550Z,23.20
2018-05-14T13:02:28.995Z,23.20
2018-05-14T13:04:57.386Z,23.00
2018-05-14T13:07:26.786Z,22.70
2018-05-14T13:09:55.154Z,22.70
2018-05-14T13:12:24.480Z,22.50
2018-05-14T13:14:52.935Z,22.50
2018-05-14T13:17:22.382Z,22.30
2018-05-14T13:19:50.773Z,22.30
2018-05-14T13:22:19.998Z,22.20
2018-05-14T13:24:48.416Z,22.20
2018-05-14T13:27:16.832Z,23.20
2018-05-14T13:29:45.238Z,23.80
2018-05-14T13:32:14.141Z,23.60
2018-05-14T13:34:42.532Z,23.80
2018-05-14T13:37:11.677Z,25.40
2018-05-14T13:39:40.041Z,25.30
2018-05-14T13:42:08.438Z,26.30
2018-05-14T13:44:36.847Z,26.50
2018-05-14T13:47:05.299Z,26.30
2018-05-14T13:49:33.685Z,26.00
2018-05-14T13:52:02.110Z,25.20
2018-05-14T13:54:31.419Z,23.30
2018-05-14T13:56:59.881Z,23.30
2018-05-14T13:59:28.388Z,22.80
2018-05-14T14:01:57.494Z,22.70
2018-05-14T14:04:25.898Z,22.70
2018-05-14T14:06:54.308Z,23.40
2018-05-14T14:09:22.728Z,23.80
2018-05-14T14:11:51.156Z,23.70
2018-05-14T14:14:19.586Z,24.70
2018-05-14T14:16:47.967Z,25.90
2018-05-14T14:19:16.483Z,26.00
2018-05-14T14:21:44.866Z,25.50
2018-05-14T14:24:13.342Z,25.00
2018-05-14T14:26:42.487Z,26.20
2018-05-14T14:29:10.864Z,26.10
2018-05-14T14:31:39.370Z,26.10
2018-05-14T14:34:07.733Z,26.10
2018-05-14T14:36:36.117Z,26.10
2018-05-14T14:39:05.919Z,26.20
2018-05-14T14:41:35.076Z,25.00
2018-05-14T14:44:03.636Z,24.90
2018-05-14T14:46:32.184Z,25.10
2018-05-14T14:49:00.599Z,24.40
2018-05-14T14:51:28.964Z,23.70
2018-05-14T14:53:58.131Z,23.30
2018-05-14T14:56:26.746Z,23.30
2018-05-14T14:58:56.003Z,24.70
2018-05-14T15:01:25.151Z,25.40
2018-05-14T15:03:53.593Z,25.30
2018-05-14T15:06:22.046Z,26.20
2018-05-14T15:08:50.526Z,27.20
2018-05-14T15:11:18.999Z,26.50
2018-05-14T15:13:47.477Z,24.50
2018-05-14T15:16:15.856Z,23.10
2018-05-14T15:18:44.294Z,22.20
2018-05-14T15:21:13.492Z,21.50
2018-05-14T15:23:42.610Z,21.30
2018-05-14T15:26:10.981Z,21.20
2018-05-14T15:28:40.098Z,21.00
2018-05-14T15:31:08.470Z,21.00
2018-05-14T15:33:37.468Z,21.00
2018-05-14T15:36:05.938Z,21.20
2018-05-14T15:38:34.338Z,21.50
2018-05-14T15:41:02.716Z,22.60
2018-05-14T15:43:31.105Z,23.20
2018-05-14T15:45:59.584Z,23.30
2018-05-14T15:48:27.932Z,23.70
2018-05-14T15:50:56.439Z,24.10
2018-05-14T15:53:24.871Z,23.80
2018-05-14T15:55:54.363Z,23.70
2018-05-14T15:58:23.555Z,23.90
2018-05-14T16:00:51.870Z,23.90
2018-05-14T16:03:21.020Z,23.80
2018-05-14T16:05:50.178Z,24.10
2018-05-14T16:08:18.586Z,24.10
2018-05-14T16:10:46.986Z,24.50
2018-05-14T16:13:15.379Z,24.40
2018-05-14T16:15:43.729Z,24.40
2018-05-14T16:18:12.149Z,23.60
2018-05-14T16:20:40.584Z,23.60
2018-05-14T16:23:09.039Z,22.80
2018-05-14T16:25:38.303Z,23.50
2018-05-14T16:28:06.708Z,23.50
2018-05-14T16:30:35.918Z,24.20
2018-05-14T16:33:04.385Z,24.20
2018-05-14T16:35:33.536Z,23.40
2018-05-14T16:38:01.979Z,23.40
2018-05-14T16:40:30.326Z,23.40
2018-05-14T16:42:59.488Z,23.70
2018-05-14T16:45:27.877Z,23.70
2018-05-14T16:47:56.274Z,23.90
2018-05-14T16:50:24.685Z,23.60
2018-05-14T16:52:53.835Z,23.60
2018-05-14T16:55:22.196Z,23.60
2018-05-14T16:57:50.738Z,23.80
2018-05-14T17:00:19.872Z,23.70
2018-05-14T17:02:49.114Z,23.70
2018-05-14T17:05:17.542Z,23.60
2018-05-14T17:07:46.653Z,23.50
2018-05-14T17:10:15.121Z,23.50
2018-05-14T17:12:43.944Z,23.30
2018-05-14T17:15:12.305Z,23.20
2018-05-14T17:17:40.658Z,22.70
2018-05-14T17:20:09.789Z,23.00
2018-05-14T17:22:38.216Z,23.00
2018-05-14T17:25:07.442Z,22.80
2018-05-14T17:27:35.833Z,22.80
2018-05-14T17:30:04.209Z,23.00
2018-05-14T17:32:32.588Z,23.20
2018-05-14T17:35:01.181Z,22.80
2018-05-14T17:37:29.532Z,22.60
2018-05-14T17:39:58.625Z,22.40
2018-05-14T17:42:27.765Z,22.70
2018-05-14T17:44:56.210Z,22.70
2018-05-14T17:47:24.596Z,22.80
2018-05-14T17:49:52.973Z,22.70
2018-05-14T17:52:21.350Z,23.00
2018-05-14T17:54:49.715Z,23.00
2018-05-14T17:57:18.069Z,22.80
2018-05-14T17:59:46.579Z,22.50
2018-05-14T18:02:15.751Z,21.80
2018-05-14T18:04:44.084Z,21.80
2018-05-14T18:07:12.509Z,21.60
2018-05-14T18:09:40.917Z,21.40
2018-05-14T18:12:10.017Z,21.20
2018-05-14T18:14:39.147Z,21.10
2018-05-14T18:17:07.504Z,21.00
2018-05-14T18:19:41.576Z,21.20
2018-05-14T18:22:12.756Z,21.00
2018-05-14T18:24:47.644Z,20.30
2018-05-14T18:27:22.509Z,19.80
2018-05-14T18:29:54.830Z,19.30
2018-05-14T18:32:23.206Z,19.20
2018-05-14T18:34:56.451Z,19.00
2018-05-14T18:37:24.791Z,18.80
2018-05-14T18:39:53.186Z,18.60
2018-05-14T18:42:21.620Z,18.20
2018-05-14T18:44:49.928Z,18.00
2018-05-14T18:47:18.251Z,17.80
2018-05-14T18:49:47.357Z,17.70
2018-05-14T18:52:16.452Z,17.50
2018-05-14T18:54:44.873Z,17.50
2018-05-14T18:57:13.957Z,17.30
2018-05-14T18:59:42.348Z,17.30
2018-05-14T19:02:10.646Z,17.20
2018-05-14T19:04:38.981Z,17.10
2018-05-14T19:07:07.388Z,16.90
2018-05-14T19:09:35.780Z,16.80
2018-05-14T19:12:04.913Z,16.50
2018-05-14T19:14:34.176Z,16.40
2018-05-14T19:20:09.397Z,16.20
2018-05-14T19:22:43.608Z,16.10
2018-05-14T19:25:12.010Z,15.90
2018-05-14T19:27:40.364Z,15.80
2018-05-14T19:30:08.712Z,15.70
2018-05-14T19:32:37.079Z,15.50
2018-05-14T19:35:11.031Z,15.60
2018-05-14T19:37:39.465Z,15.50
2018-05-14T19:40:13.477Z,15.40
2018-05-14T19:42:41.954Z,15.30
2018-05-14T19:45:10.413Z,15.30
2018-05-14T19:47:39.609Z,15.10
2018-05-14T19:50:07.957Z,15.10
2018-05-14T19:52:36.311Z,15.10
2018-05-14T19:57:32.941Z,14.70
2018-05-14T20:00:01.367Z,14.70
2018-05-14T20:02:30.490Z,14.50
2018-05-14T20:04:58.997Z,14.50
2018-05-14T20:07:28.131Z,14.30
2018-05-14T20:09:57.242Z,14.30
2018-05-14T20:12:26.332Z,14.30
2018-05-14T20:14:55.404Z,14.30
2018-05-14T20:17:23.801Z,14.30
2018-05-14T20:19:52.896Z,14.00
2018-05-14T20:22:21.308Z,14.00
2018-05-14T20:24:49.635Z,14.00
2018-05-14T20:27:18.024Z,14.00
2018-05-14T20:29:47.211Z,13.70
2018-05-14T20:32:16.317Z,13.70
2018-05-14T20:34:44.745Z,13.70
2018-05-14T20:37:14.578Z,13.40
2018-05-14T20:39:42.853Z,13.40
2018-05-14T20:42:11.213Z,13.30
2018-05-14T20:44:39.653Z,13.20
2018-05-14T20:47:08.035Z,13.10
2018-05-14T20:49:36.424Z,13.10
2018-05-14T20:52:05.636Z,12.70
2018-05-14T20:54:34.715Z,12.60
2018-05-14T20:57:03.783Z,12.50
2018-05-14T20:59:32.104Z,12.50
2018-05-14T21:02:00.418Z,12.40
2018-05-14T21:04:29.188Z,12.20
2018-05-14T21:06:57.780Z,12.10
2018-05-14T21:09:26.418Z,11.90
2018-05-14T21:11:55.605Z,11.70
2018-05-14T21:14:25.758Z,11.40
2018-05-14T21:16:55.646Z,11.40
2018-05-14T21:19:24.490Z,11.40
2018-05-14T21:21:53.371Z,11.30
2018-05-14T21:24:22.108Z,11.00
2018-05-14T21:26:51.027Z,10.80
2018-05-14T21:29:19.830Z,10.80
2018-05-14T21:31:48.593Z,10.60
2018-05-14T21:34:18.733Z,10.60
2018-05-14T21:36:47.383Z,10.50
2018-05-14T21:39:15.988Z,10.40
2018-05-14T21:41:44.917Z,10.40
2018-05-14T21:44:13.693Z,10.20
2018-05-14T21:46:42.404Z,10.20
2018-05-14T21:49:10.990Z,10.10
2018-05-14T21:51:39.611Z,10.10
2018-05-14T21:54:08.208Z,10.00
2018-05-14T21:56:37.783Z,9.80
2018-05-14T21:59:06.391Z,9.80
2018-05-14T22:01:34.919Z,9.70
2018-05-14T22:04:03.822Z,9.60
2018-05-14T22:06:33.517Z,9.40
2018-05-14T22:09:02.166Z,9.40
2018-05-14T22:11:31.685Z,9.30
2018-05-14T22:14:00.411Z,9.30
2018-05-14T22:16:28.768Z,9.30
2018-05-14T22:18:57.080Z,9.30
2018-05-14T22:21:25.413Z,9.20
2018-05-14T22:23:54.492Z,9.00
2018-05-14T22:26:22.856Z,9.00
2018-05-14T22:28:51.198Z,8.90
2018-05-14T22:31:20.192Z,8.90
2018-05-14T22:33:48.695Z,8.90
2018-05-14T22:36:17.013Z,9.00
2018-05-14T22:38:45.304Z,8.80
2018-05-14T22:41:14.361Z,8.60
2018-05-14T22:43:42.665Z,8.60
2018-05-14T22:46:11.034Z,8.70
2018-05-14T22:48:40.114Z,8.60
2018-05-14T22:51:08.396Z,8.60
2018-05-14T22:53:36.688Z,8.50
2018-05-14T22:56:04.996Z,8.50
2018-05-14T22:58:34.052Z,8.20
2018-05-14T23:01:02.368Z,8.30
2018-05-14T23:03:31.498Z,8.20
2018-05-14T23:05:59.777Z,8.20
2018-05-14T23:08:28.118Z,8.10
2018-05-14T23:10:57.276Z,8.10
2018-05-14T23:13:25.630Z,8.10
2018-05-14T23:15:53.913Z,8.10
2018-05-14T23:18:22.199Z,7.90
2018-05-14T23:20:50.482Z,7.90
2018-05-14T23:23:18.808Z,7.90
2018-05-14T23:25:47.181Z,7.80
2018-05-14T23:28:16.252Z,7.80
2018-05-14T23:30:44.567Z,7.70
2018-05-14T23:33:12.857Z,7.80
2018-05-14T23:35:41.181Z,7.70
2018-05-14T23:38:09.545Z,7.70
2018-05-14T23:40:37.877Z,7.70
2018-05-14T23:43:06.949Z,7.50
2018-05-14T23:45:36.008Z,7.50
2018-05-14T23:48:04.304Z,7.50
2018-05-14T23:50:33.839Z,7.50
2018-05-14T23:53:02.906Z,7.70
2018-05-14T23:55:32.017Z,7.60
2018-05-14T23:58:00.296Z,7.60
